Time;durP1;ratioP1;P1;durP2;ratioP2;P2;SDS_P1;SDS_P2;PMS_P1;PMS_P2;Temp;Humidity;BMP_temperature;BMP_pressure;BME280_temperature;BME280_humidity;BME280_pressure;Samples;Min_cycle;Max_cycle;Signal;HPM_P1;HPM_P2
2023/09/11 00:00:13;;;;;;;16.10;8.05;;;27.00;75.90;;;;;;7383791;19;20414;-80
2023/09/11 00:02:42;;;;;;;16.87;8.13;;;26.90;75.80;;;;;;7385162;19;20009;-81
2023/09/11 00:05:11;;;;;;;14.82;8.85;;;26.90;76.10;;;;;;7405810;19;20007;-80
2023/09/11 00:07:42;;;;;;;15.05;8.40;;;26.90;76.00;;;;;;7382699;19;20003;-80
2023/09/11 00:10:12;;;;;;;21.83;9.27;;;26.90;75.90;;;;;;7384214;19;20369;-80
2023/09/11 00:12:43;;;;;;;15.63;8.65;;;26.90;75.80;;;;;;7384275;19;20006;-80
2023/09/11 00:15:13;;;;;;;17.85;9.68;;;26.90;76.00;;;;;;7383763;19;20013;-80
2023/09/11 00:17:43;;;;;;;19.05;9.82;;;26.90;76.10;;;;;;7382794;19;20006;-80
2023/09/11 00:20:14;;;;;;;18.05;9.75;;;26.90;76.20;;;;;;7405670;19;20090;-80
2023/09/11 00:22:43;;;;;;;15.00;8.88;;;26.90;76.10;;;;;;7385517;19;20009;-79
2023/09/11 00:25:12;;;;;;;15.57;8.93;;;26.90;76.10;;;;;;7385368;19;20011;-80
2023/09/11 00:27:45;;;;;;;16.25;9.50;;;26.90;76.40;;;;;;7385169;19;20350;-80
2023/09/11 00:30:14;;;;;;;14.48;8.73;;;26.90;76.30;;;;;;7385125;19;20007;-80
2023/09/11 00:32:44;;;;;;;18.25;12.25;;;26.80;76.50;;;;;;7383959;19;20010;-81
2023/09/11 00:35:13;;;;;;;38.53;19.73;;;26.80;76.60;;;;;;7407264;19;20015;-80
2023/09/11 00:37:42;;;;;;;32.78;18.02;;;26.80;76.70;;;;;;7386700;19;20031;-81
2023/09/11 00:40:13;;;;;;;19.20;12.15;;;26.80;76.90;;;;;;7386977;19;20006;-81
2023/09/11 00:42:47;;;;;;;19.92;9.55;;;26.80;77.10;;;;;;7386247;19;20006;-81
2023/09/11 00:45:16;;;;;;;16.00;9.07;;;26.80;77.10;;;;;;7385957;19;20372;-81
2023/09/11 00:47:47;;;;;;;14.50;9.52;;;26.80;76.90;;;;;;7385863;19;20003;-81
2023/09/11 00:50:18;;;;;;;14.85;8.23;;;26.70;77.30;;;;;;7407459;19;20002;-80
2023/09/11 00:52:48;;;;;;;14.85;8.13;;;26.80;77.50;;;;;;7386452;19;20002;-80
2023/09/11 00:55:17;;;;;;;16.10;8.45;;;26.70;77.60;;;;;;7386925;19;20022;-81
2023/09/11 00:57:49;;;;;;;14.65;8.00;;;26.70;78.10;;;;;;7386498;19;20009;-80
2023/09/11 01:00:19;;;;;;;12.50;8.65;;;26.60;78.30;;;;;;7401958;19;20063;-80
2023/09/11 01:02:50;;;;;;;11.98;8.07;;;26.50;78.00;;;;;;7405693;19;20034;-80
2023/09/11 01:05:22;;;;;;;13.40;8.73;;;26.50;78.10;;;;;;7427901;19;20009;-80
2023/09/11 01:07:51;;;;;;;17.05;8.55;;;26.40;77.90;;;;;;7393866;19;20028;-80
2023/09/11 01:10:20;;;;;;;12.18;7.95;;;26.50;78.00;;;;;;7384660;19;20047;-80
2023/09/11 01:12:53;;;;;;;11.98;8.50;;;26.40;77.80;;;;;;7386129;19;20011;-80
2023/09/11 01:15:31;;;;;;;18.83;8.88;;;26.50;78.00;;;;;;7385076;19;20006;-80
2023/09/11 01:18:15;;;;;;;12.00;8.15;;;26.50;78.00;;;;;;7385218;19;20398;-80
2023/09/11 01:21:16;;;;;;;13.15;7.95;;;26.40;77.60;;;;;;7385136;19;20075;-80
2023/09/11 01:24:10;;;;;;;21.60;9.27;;;26.40;77.60;;;;;;7385472;19;20031;-79
2023/09/11 01:27:15;;;;;;;10.40;7.90;;;26.40;77.50;;;;;;7383214;19;20295;-80
2023/09/11 01:29:52;;;;;;;16.90;7.97;;;26.40;77.70;;;;;;7380835;19;20003;-80
2023/09/11 01:32:28;;;;;;;11.55;7.93;;;26.40;77.50;;;;;;7405110;19;20007;-80
2023/09/11 01:35:02;;;;;;;11.25;7.90;;;26.40;77.90;;;;;;7384111;19;19999;-80
2023/09/11 01:37:41;;;;;;;13.05;9.10;;;26.40;77.90;;;;;;7383928;19;20278;-80
2023/09/11 01:40:11;;;;;;;12.05;8.23;;;26.40;78.00;;;;;;7383639;19;19998;-80
2023/09/11 01:42:44;;;;;;;26.23;8.20;;;26.30;77.80;;;;;;7384194;19;20010;-79
2023/09/11 01:45:15;;;;;;;13.23;8.00;;;26.40;77.90;;;;;;7383815;19;20010;-81
2023/09/11 01:47:46;;;;;;;13.32;8.13;;;26.30;78.00;;;;;;7382410;19;20013;-80
2023/09/11 01:50:18;;;;;;;12.88;8.13;;;26.30;78.20;;;;;;7404038;19;20031;-80
2023/09/11 01:52:52;;;;;;;14.10;8.15;;;26.30;78.30;;;;;;7383894;19;20382;-80
2023/09/11 01:55:23;;;;;;;15.60;8.82;;;26.20;78.10;;;;;;7383120;19;20027;-80
2023/09/11 01:57:52;;;;;;;14.95;8.15;;;26.20;78.30;;;;;;7384107;19;20305;-80
2023/09/11 02:00:26;;;;;;;12.63;8.82;;;26.20;78.40;;;;;;7382186;19;20219;-80
2023/09/11 02:02:58;;;;;;;14.82;8.23;;;26.20;78.40;;;;;;7383745;19;20075;-81
2023/09/11 02:05:31;;;;;;;14.45;8.45;;;26.20;78.60;;;;;;7404328;19;20014;-81
2023/09/11 02:08:01;;;;;;;20.30;8.13;;;26.20;78.60;;;;;;7380517;19;20007;-79
2023/09/11 02:10:35;;;;;;;13.48;8.70;;;26.20;78.70;;;;;;7381509;19;20014;-80
2023/09/11 02:13:05;;;;;;;16.08;9.32;;;26.20;78.80;;;;;;7381737;19;20026;-79
2023/09/11 02:15:39;;;;;;;16.00;9.23;;;26.20;79.10;;;;;;7386963;19;20041;-79
2023/09/11 02:18:11;;;;;;;15.02;9.38;;;26.20;79.00;;;;;;7383037;19;20047;-80
2023/09/11 02:20:47;;;;;;;15.88;9.68;;;26.20;78.90;;;;;;7392369;19;20003;-79
2023/09/11 02:23:18;;;;;;;15.27;9.50;;;26.20;79.10;;;;;;7409078;19;20024;-80
2023/09/11 02:25:53;;;;;;;15.50;9.07;;;26.10;79.20;;;;;;7389799;19;20043;-80
2023/09/11 02:28:21;;;;;;;13.40;9.18;;;26.10;79.10;;;;;;7389973;19;20377;-80
2023/09/11 02:30:54;;;;;;;13.48;9.52;;;26.10;79.00;;;;;;7389599;19;20007;-80
2023/09/11 02:33:25;;;;;;;13.80;8.98;;;26.10;79.20;;;;;;7389664;19;20007;-81
2023/09/11 02:36:00;;;;;;;11.88;8.60;;;26.10;79.30;;;;;;7388192;19;20011;-80
2023/09/11 02:38:29;;;;;;;16.33;9.20;;;26.10;79.20;;;;;;7409005;19;20047;-81
2023/09/11 02:40:58;;;;;;;16.17;9.20;;;26.10;79.10;;;;;;7390177;19;20006;-81
2023/09/11 02:43:29;;;;;;;19.25;9.52;;;26.10;79.30;;;;;;7389378;19;20003;-80
2023/09/11 02:46:03;;;;;;;18.13;9.20;;;26.10;80.30;;;;;;7390165;19;20251;-80
2023/09/11 02:48:34;;;;;;;17.98;9.30;;;26.00;79.40;;;;;;7394398;19;20114;-79
2023/09/11 02:51:06;;;;;;;;;;;26.00;79.50;;;;;;7412997;19;20017;-80
2023/09/11 02:53:38;;;;;;;14.77;9.70;;;26.00;79.70;;;;;;7429506;19;19947;-81
2023/09/11 02:56:09;;;;;;;;;;;25.90;79.80;;;;;;7434928;19;20051;-80
2023/09/11 02:58:38;;;;;;;23.98;8.90;;;25.90;80.20;;;;;;7405305;19;19955;-80
2023/09/11 03:01:12;;;;;;;22.48;9.93;;;25.80;80.30;;;;;;7389953;19;20015;-80
2023/09/11 03:03:46;;;;;;;16.80;9.93;;;25.70;80.50;;;;;;7388010;19;20031;-80
2023/09/11 03:06:17;;;;;;;20.58;9.50;;;25.70;80.60;;;;;;7387854;19;20019;-80
2023/09/11 03:08:46;;;;;;;17.17;10.32;;;25.70;80.90;;;;;;7387918;19;20007;-80
2023/09/11 03:11:18;;;;;;;15.45;9.43;;;25.70;81.10;;;;;;7407801;19;20035;-80
2023/09/11 03:13:58;;;;;;;13.57;9.23;;;25.70;81.10;;;;;;7388670;19;20009;-80
2023/09/11 03:16:31;;;;;;;19.00;10.60;;;25.70;81.10;;;;;;7389447;19;20029;-80
2023/09/11 03:19:02;;;;;;;22.63;10.52;;;25.60;81.10;;;;;;7387782;19;20007;-80
2023/09/11 03:21:46;;;;;;;15.63;10.45;;;25.60;81.50;;;;;;7387120;19;20003;-80
2023/09/11 03:24:22;;;;;;;20.38;10.48;;;25.60;81.80;;;;;;7386317;19;20006;-80
2023/09/11 03:26:51;;;;;;;19.98;10.88;;;25.60;82.10;;;;;;7388689;19;20248;-80
2023/09/11 03:29:22;;;;;;;16.00;10.73;;;25.50;82.10;;;;;;7407339;19;20040;-80
2023/09/11 03:31:54;;;;;;;17.05;11.00;;;25.50;82.70;;;;;;7385884;19;20015;-81
2023/09/11 03:34:26;;;;;;;16.02;10.00;;;25.50;82.40;;;;;;7387885;19;20007;-81
2023/09/11 03:36:59;;;;;;;20.73;10.68;;;25.50;82.40;;;;;;7387249;19;20632;-81
2023/09/11 03:39:28;;;;;;;20.48;10.35;;;25.50;82.10;;;;;;7388921;19;20010;-80
2023/09/11 03:41:58;;;;;;;21.80;10.30;;;25.50;81.80;;;;;;7386519;19;20015;-81
2023/09/11 03:44:27;;;;;;;16.40;9.90;;;25.50;81.80;;;;;;7411202;19;20007;-81
2023/09/11 03:47:02;;;;;;;19.67;10.43;;;25.50;81.90;;;;;;7386903;19;20074;-81
2023/09/11 03:49:30;;;;;;;17.85;10.60;;;25.50;82.10;;;;;;7386293;19;20350;-80
2023/09/11 03:52:01;;;;;;;19.38;10.38;;;25.50;82.20;;;;;;7387819;19;20342;-80
2023/09/11 03:54:29;;;;;;;20.10;10.05;;;25.50;82.20;;;;;;7388947;19;20065;-81
2023/09/11 03:56:58;;;;;;;16.73;11.05;;;25.50;82.10;;;;;;7386694;19;20013;-81
2023/09/11 03:59:33;;;;;;;18.52;10.65;;;25.50;82.30;;;;;;7407035;19;20028;-80
2023/09/11 04:02:07;;;;;;;24.80;11.13;;;25.40;82.20;;;;;;7387987;19;20358;-80
2023/09/11 04:04:38;;;;;;;17.33;9.85;;;25.40;82.20;;;;;;7386626;19;20293;-80
2023/09/11 04:07:12;;;;;;;19.20;9.98;;;25.40;82.10;;;;;;7386597;19;20011;-80
2023/09/11 04:09:44;;;;;;;20.60;10.40;;;25.40;82.10;;;;;;7386355;19;20003;-80
2023/09/11 04:12:21;;;;;;;23.23;10.35;;;25.40;82.00;;;;;;7387018;19;20074;-80
2023/09/11 04:14:50;;;;;;;16.50;10.27;;;25.40;82.10;;;;;;7385901;19;20011;-80
2023/09/11 04:17:21;;;;;;;20.02;10.48;;;25.40;82.10;;;;;;7406705;19;20011;-80
2023/09/11 04:20:01;;;;;;;19.90;10.35;;;25.40;82.20;;;;;;7386192;19;20002;-79
2023/09/11 04:22:29;;;;;;;17.17;10.48;;;25.40;82.20;;;;;;7386411;19;20014;-79
2023/09/11 04:24:58;;;;;;;15.32;10.55;;;25.40;82.70;;;;;;7385988;19;19998;-80
2023/09/11 04:27:27;;;;;;;17.80;10.52;;;25.40;81.70;;;;;;7386007;19;20014;-80
2023/09/11 04:30:00;;;;;;;17.15;10.95;;;25.40;81.80;;;;;;7385194;19;20000;-80
2023/09/11 04:32:31;;;;;;;16.05;10.50;;;25.30;81.90;;;;;;7408690;19;20223;-81
2023/09/11 04:35:03;;;;;;;16.45;10.43;;;25.30;81.90;;;;;;7387298;19;20010;-80
2023/09/11 04:37:32;;;;;;;20.58;10.40;;;25.30;82.10;;;;;;7385393;19;20003;-81
2023/09/11 04:40:01;;;;;;;15.57;10.43;;;25.30;82.30;;;;;;7386070;19;20264;-81
2023/09/11 04:42:30;;;;;;;16.02;10.13;;;25.30;82.30;;;;;;7396516;19;20010;-81
2023/09/11 04:45:00;;;;;;;17.23;10.55;;;25.30;82.20;;;;;;7407277;19;20071;-82
2023/09/11 04:47:37;;;;;;;20.65;10.68;;;25.20;82.00;;;;;;7428978;19;20057;-81
2023/09/11 04:50:06;;;;;;;20.58;10.50;;;25.20;82.50;;;;;;7407303;19;20038;-82
2023/09/11 04:52:35;;;;;;;19.48;10.60;;;25.20;82.60;;;;;;7398316;19;20018;-81
2023/09/11 04:55:04;;;;;;;18.98;11.13;;;25.20;82.70;;;;;;7386811;19;20222;-81
2023/09/11 04:57:34;;;;;;;23.88;11.07;;;25.20;82.60;;;;;;7385252;19;20016;-80
2023/09/11 05:00:06;;;;;;;17.25;10.60;;;25.20;82.40;;;;;;7384825;19;20006;-81
2023/09/11 05:02:37;;;;;;;17.05;11.20;;;25.20;82.20;;;;;;7408567;19;20361;-80
2023/09/11 05:05:06;;;;;;;23.15;11.13;;;25.20;82.40;;;;;;7385885;19;20011;-80
2023/09/11 05:07:35;;;;;;;17.02;10.02;;;25.20;82.40;;;;;;7384281;19;20023;-80
2023/09/11 05:10:05;;;;;;;15.45;10.18;;;25.20;82.10;;;;;;7385632;19;20014;-79
2023/09/11 05:12:34;;;;;;;18.83;10.48;;;25.20;82.10;;;;;;7384801;19;20035;-80
2023/09/11 05:15:03;;;;;;;29.73;11.50;;;25.10;82.00;;;;;;7384658;19;20064;-80
2023/09/11 05:17:31;;;;;;;19.50;10.55;;;25.10;82.20;;;;;;7406507;19;20011;-80
2023/09/11 05:20:03;;;;;;;19.83;11.23;;;25.10;82.40;;;;;;7385169;19;20027;-80
2023/09/11 05:22:39;;;;;;;21.75;11.10;;;25.10;82.70;;;;;;7385009;19;20052;-80
2023/09/11 05:25:09;;;;;;;15.57;10.32;;;25.00;82.70;;;;;;7386004;19;20015;-81
2023/09/11 05:27:38;;;;;;;27.40;11.73;;;25.00;82.70;;;;;;7385049;19;20011;-81
2023/09/11 05:30:08;;;;;;;18.67;11.65;;;25.10;82.50;;;;;;7384043;19;20686;-80
2023/09/11 05:32:36;;;;;;;18.02;11.00;;;25.00;82.50;;;;;;7389408;19;20007;-80
2023/09/11 05:35:09;;;;;;;21.98;11.30;;;25.00;82.60;;;;;;7404798;19;20245;-79
2023/09/11 05:37:38;;;;;;;24.67;11.00;;;25.00;82.60;;;;;;7384062;19;20010;-80
2023/09/11 05:40:09;;;;;;;22.13;11.18;;;25.00;82.60;;;;;;7383829;19;20007;-80
2023/09/11 05:42:38;;;;;;;18.10;11.15;;;25.00;82.50;;;;;;7387287;19;20066;-80
2023/09/11 05:45:08;;;;;;;24.63;11.15;;;25.00;82.50;;;;;;7388553;19;20046;-81
2023/09/11 05:47:38;;;;;;;26.83;11.75;;;25.00;82.70;;;;;;7383352;19;20357;-80
2023/09/11 05:50:11;;;;;;;29.48;12.50;;;25.00;82.90;;;;;;7404965;19;20014;-80
2023/09/11 05:52:41;;;;;;;30.25;11.65;;;25.00;83.00;;;;;;7382833;19;20007;-80
2023/09/11 05:55:11;;;;;;;22.08;11.20;;;24.90;83.10;;;;;;7383280;19;20011;-80
2023/09/11 05:57:39;;;;;;;35.33;12.10;;;25.00;83.20;;;;;;7383286;19;20006;-80
2023/09/11 06:00:12;;;;;;;22.40;11.13;;;25.00;83.10;;;;;;7383109;19;20006;-80
2023/09/11 06:02:44;;;;;;;23.25;11.13;;;25.00;83.00;;;;;;7385066;19;20017;-80
2023/09/11 06:05:17;;;;;;;22.85;11.52;;;25.10;83.00;;;;;;7405798;19;20007;-80
2023/09/11 06:07:46;;;;;;;31.23;11.57;;;25.10;83.00;;;;;;7383409;19;20365;-80
2023/09/11 06:10:16;;;;;;;21.45;11.13;;;25.10;83.10;;;;;;7381379;19;20011;-80
2023/09/11 06:12:44;;;;;;;20.40;11.27;;;25.10;83.20;;;;;;7383686;19;20007;-80
2023/09/11 06:15:15;;;;;;;23.85;11.18;;;25.20;84.00;;;;;;7382822;19;20357;-80
2023/09/11 06:17:44;;;;;;;19.88;11.60;;;25.20;83.20;;;;;;7382849;19;20250;-80
2023/09/11 06:20:21;;;;;;;28.02;11.65;;;25.20;83.30;;;;;;7405376;19;20006;-80
2023/09/11 06:22:50;;;;;;;22.27;11.52;;;25.20;83.30;;;;;;7387828;19;20011;-80
2023/09/11 06:25:19;;;;;;;21.70;11.40;;;25.30;83.30;;;;;;7383627;19;20016;-80
2023/09/11 06:27:47;;;;;;;33.28;12.45;;;25.30;83.30;;;;;;7384011;19;20003;-80
2023/09/11 06:30:16;;;;;;;23.13;12.60;;;25.30;83.40;;;;;;7383089;19;20010;-79
2023/09/11 06:32:45;;;;;;;28.33;12.55;;;25.30;83.60;;;;;;7382847;19;20087;-80
2023/09/11 06:35:17;;;;;;;23.35;12.68;;;25.30;83.70;;;;;;7405085;19;20024;-80
2023/09/11 06:37:46;;;;;;;30.45;13.88;;;25.30;83.80;;;;;;7384090;19;20006;-80
2023/09/11 06:40:14;;;;;;;46.45;15.13;;;25.30;83.90;;;;;;7385648;19;20370;-80
2023/09/11 06:42:43;;;;;;;27.50;13.00;;;25.40;84.10;;;;;;7399872;19;20031;-79
2023/09/11 06:45:13;;;;;;;24.88;12.25;;;25.40;84.10;;;;;;7403474;19;20046;-80
2023/09/11 06:47:44;;;;;;;24.30;11.85;;;25.40;84.00;;;;;;7403034;19;19998;-80
2023/09/11 06:50:14;;;;;;;31.25;12.25;;;25.50;84.00;;;;;;7424397;19;20047;-79
2023/09/11 06:52:46;;;;;;;25.67;12.43;;;25.50;84.10;;;;;;7391550;19;20011;-79
2023/09/11 06:55:14;;;;;;;25.73;13.35;;;25.50;84.40;;;;;;7396483;19;20003;-79
2023/09/11 06:57:57;;;;;;;31.60;14.43;;;25.50;84.60;;;;;;7396249;19;20322;-78
2023/09/11 07:00:29;;;;;;;39.53;13.65;;;25.60;84.50;;;;;;7393003;19;20010;-80
2023/09/11 07:03:00;;;;;;;29.83;13.40;;;25.70;84.40;;;;;;7391542;19;20039;-79
2023/09/11 07:05:29;;;;;;;31.25;13.20;;;25.70;84.40;;;;;;7412621;19;20023;-78
2023/09/11 07:08:03;;;;;;;32.92;12.88;;;25.80;84.40;;;;;;7390201;19;20007;-80
2023/09/11 07:10:32;;;;;;;42.65;12.75;;;25.90;84.40;;;;;;7386410;19;20090;-79
2023/09/11 07:13:01;;;;;;;36.17;11.93;;;25.90;84.10;;;;;;7389825;19;20039;-80
2023/09/11 07:15:30;;;;;;;45.95;12.68;;;26.10;83.50;;;;;;7387779;19;20061;-80
2023/09/11 07:18:03;;;;;;;41.05;11.63;;;26.20;83.30;;;;;;7387448;19;20020;-80
2023/09/11 07:20:32;;;;;;;24.95;10.93;;;26.40;82.70;;;;;;7412188;19;20006;-79
2023/09/11 07:23:03;;;;;;;31.20;10.38;;;26.40;81.90;;;;;;7389202;19;20362;-79
2023/09/11 07:25:32;;;;;;;33.10;12.25;;;26.50;81.20;;;;;;7388680;19;20279;-80
2023/09/11 07:28:02;;;;;;;34.88;13.25;;;26.60;81.70;;;;;;7387967;19;20003;-79
2023/09/11 07:30:31;;;;;;;35.23;11.53;;;26.60;80.90;;;;;;7387894;19;20400;-79
2023/09/11 07:33:00;;;;;;;34.13;11.63;;;26.60;80.80;;;;;;7386969;19;20090;-78
2023/09/11 07:35:32;;;;;;;34.53;10.68;;;26.70;80.90;;;;;;7407933;19;20220;-79
2023/09/11 07:38:07;;;;;;;31.63;9.88;;;26.70;81.00;;;;;;7388592;19;20011;-79
2023/09/11 07:40:36;;;;;;;24.02;8.55;;;26.80;80.70;;;;;;7388613;19;20031;-80
2023/09/11 07:43:04;;;;;;;20.65;8.50;;;26.90;80.40;;;;;;7387695;19;20011;-80
2023/09/11 07:45:33;;;;;;;15.98;8.25;;;26.90;80.10;;;;;;7386951;19;20031;-80
2023/09/11 07:48:02;;;;;;;20.27;9.10;;;27.00;78.60;;;;;;7388092;19;20010;-80
2023/09/11 07:50:31;;;;;;;16.65;7.93;;;27.10;78.10;;;;;;7406961;19;20602;-80
2023/09/11 07:53:00;;;;;;;20.80;8.02;;;27.10;77.80;;;;;;7387139;19;20251;-80
2023/09/11 07:55:31;;;;;;;35.20;8.50;;;27.10;76.90;;;;;;7387478;19;20392;-81
2023/09/11 07:58:00;;;;;;;19.85;8.40;;;27.00;76.80;;;;;;7388297;19;19998;-80
2023/09/11 08:00:30;;;;;;;24.92;9.68;;;26.90;76.90;;;;;;7386290;19;20397;-81
2023/09/11 08:02:59;;;;;;;18.10;8.30;;;26.90;77.30;;;;;;7385288;19;20010;-81
2023/09/11 08:05:35;;;;;;;25.23;9.02;;;27.00;77.40;;;;;;7406487;19;20023;-80
2023/09/11 08:08:07;;;;;;;21.95;9.15;;;27.00;77.10;;;;;;7387711;19;20007;-80
2023/09/11 08:10:41;;;;;;;27.63;9.55;;;27.10;77.20;;;;;;7385272;19;20006;-81
2023/09/11 08:13:13;;;;;;;25.58;8.80;;;27.00;77.10;;;;;;7387442;19;20051;-81
2023/09/11 08:15:42;;;;;;;21.02;9.38;;;27.10;77.20;;;;;;7386892;19;20031;-79
2023/09/11 08:18:11;;;;;;;21.27;10.57;;;27.10;77.10;;;;;;7384445;19;20003;-80
2023/09/11 08:20:40;;;;;;;22.95;8.88;;;27.20;77.10;;;;;;7383946;19;20010;-80
2023/09/11 08:23:08;;;;;;;21.23;10.77;;;27.20;77.00;;;;;;7406641;19;20003;-80
2023/09/11 08:25:43;;;;;;;19.20;9.52;;;27.30;76.90;;;;;;7387285;19;20003;-81
2023/09/11 08:28:14;;;;;;;23.73;8.40;;;27.40;76.90;;;;;;7386718;19;20010;-81
2023/09/11 08:30:45;;;;;;;19.38;8.55;;;27.40;76.80;;;;;;7385258;19;20010;-81
2023/09/11 08:33:14;;;;;;;21.33;8.75;;;27.40;76.30;;;;;;7388198;19;20034;-81
2023/09/11 08:35:43;;;;;;;22.77;8.90;;;27.50;76.30;;;;;;7385379;19;20020;-81
2023/09/11 08:38:12;;;;;;;29.00;8.75;;;27.50;76.00;;;;;;7406581;19;20034;-80
2023/09/11 08:40:48;;;;;;;15.43;7.45;;;27.50;76.00;;;;;;7398989;19;20035;-80
2023/09/11 08:43:24;;;;;;;21.98;7.75;;;27.60;76.00;;;;;;7407081;19;20011;-80
2023/09/11 08:45:54;;;;;;;19.48;7.40;;;27.60;75.30;;;;;;7407247;19;20046;-80
2023/09/11 08:48:26;;;;;;;28.23;7.53;;;27.60;74.90;;;;;;7408235;19;20017;-80
2023/09/11 08:50:58;;;;;;;22.20;7.38;;;27.60;74.40;;;;;;7392611;19;20023;-80
2023/09/11 08:53:29;;;;;;;24.95;7.75;;;27.60;74.10;;;;;;7405245;19;20031;-80
2023/09/11 08:56:00;;;;;;;;;;;27.60;74.30;;;;;;7385330;19;20054;-80
2023/09/11 08:58:32;;;;;;;16.90;6.72;;;27.70;74.20;;;;;;7384102;19;19922;-79
2023/09/11 09:01:02;;;;;;;19.13;6.18;;;27.80;73.70;;;;;;7384081;19;20361;-79
2023/09/11 09:03:31;;;;;;;15.48;6.57;;;27.80;73.30;;;;;;7385208;19;20002;-80
2023/09/11 09:06:02;;;;;;;28.05;7.20;;;27.90;73.00;;;;;;7384295;19;20006;-80
2023/09/11 09:08:33;;;;;;;18.42;6.75;;;27.90;73.00;;;;;;7406644;19;20260;-79
2023/09/11 09:11:07;;;;;;;15.52;7.22;;;27.90;72.70;;;;;;7383876;19;20238;-80
2023/09/11 09:13:37;;;;;;;20.60;6.55;;;28.00;72.50;;;;;;7383678;19;20011;-80
2023/09/11 09:16:09;;;;;;;18.33;6.65;;;28.00;72.20;;;;;;7384898;19;19999;-80
2023/09/11 09:18:38;;;;;;;15.35;6.38;;;28.10;71.80;;;;;;7383988;19;20003;-79
2023/09/11 09:21:08;;;;;;;26.20;7.85;;;28.00;72.20;;;;;;7384334;19;20003;-80
2023/09/11 09:23:39;;;;;;;40.33;8.48;;;27.80;74.40;;;;;;7388748;19;20027;-80
2023/09/11 09:26:15;;;;;;;21.50;8.27;;;27.60;75.60;;;;;;7404685;19;20218;-80
2023/09/11 09:28:48;;;;;;;25.10;8.57;;;27.40;77.10;;;;;;7381494;19;20007;-80
2023/09/11 09:31:25;;;;;;;18.38;7.93;;;27.10;77.10;;;;;;7382808;19;20031;-80
2023/09/11 09:33:55;;;;;;;13.65;8.70;;;26.90;77.60;;;;;;7383011;19;20038;-81
2023/09/11 09:36:25;;;;;;;15.48;8.32;;;26.80;77.80;;;;;;7385246;19;20071;-80
2023/09/11 09:38:54;;;;;;;18.85;8.80;;;26.70;78.30;;;;;;7383490;19;20007;-80
2023/09/11 09:41:25;;;;;;;15.65;8.25;;;26.70;78.20;;;;;;7404057;19;20007;-80
2023/09/11 09:43:56;;;;;;;21.30;8.27;;;26.40;78.50;;;;;;7386398;19;20240;-80
2023/09/11 09:46:27;;;;;;;15.57;7.83;;;26.30;79.40;;;;;;7384808;19;20028;-80
2023/09/11 09:48:55;;;;;;;18.33;8.02;;;26.20;80.10;;;;;;7383636;19;20013;-80
2023/09/11 09:51:28;;;;;;;17.70;8.10;;;26.40;80.40;;;;;;7385094;19;20006;-80
2023/09/11 09:53:57;;;;;;;18.40;8.00;;;26.20;80.30;;;;;;7385163;19;20048;-80
2023/09/11 09:56:30;;;;;;;23.67;7.38;;;26.20;80.30;;;;;;7403715;19;20006;-80
2023/09/11 09:59:01;;;;;;;15.82;7.18;;;26.40;79.90;;;;;;7383923;19;20014;-81
2023/09/11 10:01:29;;;;;;;13.98;7.40;;;26.30;79.30;;;;;;7383186;19;20082;-80
2023/09/11 10:03:59;;;;;;;15.65;7.20;;;26.40;80.00;;;;;;7382853;19;20011;-80
2023/09/11 10:06:31;;;;;;;11.77;6.85;;;26.50;79.60;;;;;;7383519;19;20023;-81
2023/09/11 10:09:08;;;;;;;10.73;6.78;;;26.50;79.20;;;;;;7383726;19;20013;-81
2023/09/11 10:11:41;;;;;;;15.70;7.15;;;26.70;79.10;;;;;;7386779;19;20010;-81
2023/09/11 10:14:12;;;;;;;12.02;7.00;;;26.90;78.80;;;;;;7403499;19;20066;-79
2023/09/11 10:16:41;;;;;;;15.80;6.47;;;27.00;77.70;;;;;;7382703;19;20010;-80
2023/09/11 10:19:10;;;;;;;12.05;6.60;;;27.00;76.50;;;;;;7382332;19;20392;-80
2023/09/11 10:21:39;;;;;;;12.90;5.90;;;27.10;76.50;;;;;;7381103;19;20276;-80
2023/09/11 10:24:10;;;;;;;9.95;5.57;;;27.00;76.50;;;;;;7386657;19;20054;-80
2023/09/11 10:26:49;;;;;;;9.90;5.60;;;27.00;76.30;;;;;;7384657;19;20003;-80
2023/09/11 10:29:34;;;;;;;16.95;5.47;;;27.10;75.60;;;;;;7405448;19;20011;-81
2023/09/11 10:32:08;;;;;;;7.80;4.60;;;27.10;75.60;;;;;;7381577;19;20272;-81
2023/09/11 10:34:42;;;;;;;18.15;5.55;;;27.20;75.50;;;;;;7394387;19;20007;-81
2023/09/11 10:37:11;;;;;;;18.45;5.20;;;27.30;75.60;;;;;;7404568;19;20003;-81
2023/09/11 10:39:41;;;;;;;12.63;5.85;;;27.20;75.10;;;;;;7395475;19;20235;-81
2023/09/11 10:42:13;;;;;;;10.75;5.32;;;27.30;74.70;;;;;;7391475;19;20010;-80
2023/09/11 10:44:42;;;;;;;14.60;5.47;;;27.40;74.60;;;;;;7391748;19;20066;-80
2023/09/11 10:47:15;;;;;;;12.88;5.70;;;27.20;74.40;;;;;;7409518;19;20283;-80
2023/09/11 10:49:44;;;;;;;9.45;5.88;;;27.30;74.00;;;;;;7387426;19;20003;-80
2023/09/11 10:52:14;;;;;;;11.43;5.50;;;27.40;73.70;;;;;;7388599;19;20035;-80
2023/09/11 10:54:43;;;;;;;15.40;5.57;;;27.30;73.90;;;;;;7387399;19;20003;-80
2023/09/11 10:57:16;;;;;;;10.00;5.53;;;27.30;74.40;;;;;;7387187;19;20006;-80
2023/09/11 10:59:48;;;;;;;11.43;5.50;;;27.20;74.20;;;;;;7388565;19;20358;-81
2023/09/11 11:02:17;;;;;;;11.98;5.80;;;27.20;75.10;;;;;;7409978;19;20010;-80
2023/09/11 11:04:43;;;;;;;12.68;5.45;;;27.40;75.30;;;;;;7387102;19;20031;-81
2023/09/11 11:07:19;;;;;;;9.07;5.30;;;27.50;74.80;;;;;;7388719;19;20015;-82
2023/09/11 11:09:52;;;;;;;10.75;5.65;;;27.50;74.20;;;;;;7387349;19;20062;-80
2023/09/11 11:12:35;;;;;;;11.40;5.82;;;27.50;74.10;;;;;;7387906;19;20345;-81
2023/09/11 11:15:23;;;;;;;23.30;7.05;;;27.50;74.10;;;;;;7390400;19;20096;-81
2023/09/11 11:18:11;;;;;;;13.80;5.20;;;27.50;74.50;;;;;;7387201;19;20006;-81
2023/09/11 11:20:40;;;;;;;15.27;5.18;;;27.50;74.30;;;;;;7386504;19;20011;-81
2023/09/11 11:23:12;;;;;;;13.00;5.80;;;27.60;74.30;;;;;;7407582;19;20365;-81
2023/09/11 11:25:44;;;;;;;10.63;5.32;;;27.60;73.90;;;;;;7387416;19;20283;-81
2023/09/11 11:28:25;;;;;;;7.85;4.85;;;27.60;72.80;;;;;;7388757;19;20055;-80
2023/09/11 11:30:57;;;;;;;11.70;4.75;;;27.70;73.20;;;;;;7386522;19;20007;-81
2023/09/11 11:33:31;;;;;;;8.80;4.50;;;27.70;72.60;;;;;;7388125;19;20034;-80
2023/09/11 11:36:01;;;;;;;8.38;4.22;;;27.80;72.30;;;;;;7388444;19;20007;-80
2023/09/11 11:38:31;;;;;;;9.20;4.13;;;27.80;72.20;;;;;;7407719;19;20010;-80
2023/09/11 11:41:01;;;;;;;10.75;4.40;;;27.80;72.40;;;;;;7387024;19;20016;-80
2023/09/11 11:43:35;;;;;;;17.23;4.80;;;27.80;72.60;;;;;;7386712;19;20003;-80
2023/09/11 11:46:06;;;;;;;9.02;4.57;;;27.80;72.80;;;;;;7387975;19;20003;-80
2023/09/11 11:48:37;;;;;;;7.47;4.15;;;27.70;73.00;;;;;;7388301;19;20046;-80
2023/09/11 11:51:06;;;;;;;10.88;4.35;;;27.70;73.30;;;;;;7387406;19;20022;-79
2023/09/11 11:53:35;;;;;;;18.75;5.00;;;27.80;73.40;;;;;;7405393;19;20031;-80
2023/09/11 11:56:06;;;;;;;9.73;4.57;;;27.80;73.40;;;;;;7406772;19;20013;-80
2023/09/11 11:58:37;;;;;;;9.93;4.60;;;27.70;73.40;;;;;;7386448;19;20016;-80
2023/09/11 12:01:07;;;;;;;8.52;4.65;;;27.70;73.60;;;;;;7388386;19;20013;-80
2023/09/11 12:03:47;;;;;;;7.10;4.47;;;27.70;73.80;;;;;;7385836;19;20003;-80
2023/09/11 12:06:22;;;;;;;9.60;4.13;;;27.80;74.00;;;;;;7387417;19;20224;-81
2023/09/11 12:08:51;;;;;;;9.00;4.70;;;27.80;73.70;;;;;;7385065;19;20034;-81
2023/09/11 12:11:20;;;;;;;8.25;4.05;;;27.80;73.80;;;;;;7406470;19;20007;-81
2023/09/11 12:13:53;;;;;;;7.35;4.32;;;27.80;73.80;;;;;;7386964;19;20265;-81
2023/09/11 12:16:21;;;;;;;12.23;3.97;;;27.80;74.00;;;;;;7387885;19;20334;-81
2023/09/11 12:18:53;;;;;;;11.68;4.28;;;27.90;73.80;;;;;;7387463;19;20002;-81
2023/09/11 12:21:22;;;;;;;14.80;4.45;;;27.90;73.70;;;;;;7385746;19;20002;-81
2023/09/11 12:23:51;;;;;;;11.15;4.50;;;27.90;73.70;;;;;;7386202;19;20007;-81
2023/09/11 12:26:20;;;;;;;11.13;4.63;;;27.90;73.80;;;;;;7406911;19;20010;-81
2023/09/11 12:28:51;;;;;;;25.70;5.43;;;28.00;74.50;;;;;;7407580;19;20002;-81
2023/09/11 12:31:20;;;;;;;18.67;5.65;;;28.00;73.80;;;;;;7407292;19;20018;-79
2023/09/11 12:33:55;;;;;;;10.05;4.50;;;28.10;74.00;;;;;;7407553;19;20003;-80
2023/09/11 12:36:24;;;;;;;14.43;4.82;;;28.10;74.20;;;;;;7394520;19;20280;-80
2023/09/11 12:38:54;;;;;;;9.55;4.82;;;28.10;74.10;;;;;;7385515;19;20006;-81
2023/09/11 12:41:24;;;;;;;10.52;5.00;;;28.20;74.50;;;;;;7406377;19;20007;-81
2023/09/11 12:43:57;;;;;;;13.30;5.20;;;28.20;74.40;;;;;;7388352;19;20018;-81
2023/09/11 12:46:26;;;;;;;8.52;4.75;;;28.30;74.00;;;;;;7385344;19;20007;-81
2023/09/11 12:48:55;;;;;;;9.38;4.72;;;28.40;73.50;;;;;;7385580;19;20011;-81
2023/09/11 12:51:24;;;;;;;9.13;4.47;;;28.40;73.20;;;;;;7383462;19;20006;-81
2023/09/11 12:54:05;;;;;;;22.70;4.72;;;28.50;73.00;;;;;;7384394;19;20038;-81
2023/09/11 12:56:35;;;;;;;;;;;28.60;72.40;;;;;;7407879;19;20010;-80